Time;durP1;ratioP1;P1;durP2;ratioP2;P2;SDS_P1;SDS_P2;PMS_P1;PMS_P2;Temp;Humidity;BMP_temperature;BMP_pressure;BME280_temperature;BME280_humidity;BME280_pressure;Samples;Min_cycle;Max_cycle;Signal;HPM_P1;HPM_P2
2023/07/13 00:01:35;;;;;;;3.05;1.65;;;21.30;99.90;;;;;;5044053;28;20189;-31
2023/07/13 00:04:01;;;;;;;2.42;1.73;;;21.30;99.90;;;;;;5029411;28;20182;-30
2023/07/13 00:06:32;;;;;;;2.83;1.48;;;21.20;99.90;;;;;;5046961;28;20174;-31
2023/07/13 00:08:59;;;;;;;1.52;1.40;;;21.00;99.90;;;;;;5050453;28;20209;-31
2023/07/13 00:11:25;;;;;;;2.72;1.83;;;20.80;99.90;;;;;;5026910;28;20185;-31
2023/07/13 00:13:51;;;;;;;2.80;1.75;;;20.70;99.90;;;;;;5026625;28;20194;-31
2023/07/13 00:16:18;;;;;;;2.50;1.90;;;20.70;99.90;;;;;;5048146;28;20205;-30
2023/07/13 00:18:45;;;;;;;3.65;1.85;;;20.60;99.90;;;;;;5043831;28;20210;-31
2023/07/13 00:21:12;;;;;;;2.90;1.55;;;20.50;99.90;;;;;;5045163;28;20181;-31
2023/07/13 00:23:39;;;;;;;2.25;1.80;;;20.50;99.90;;;;;;5029042;28;20182;-31
2023/07/13 00:26:09;;;;;;;2.35;1.35;;;20.50;99.90;;;;;;5027574;28;20273;-31
2023/07/13 00:28:35;;;;;;;3.30;1.70;;;20.60;99.90;;;;;;5040548;28;20677;-31
2023/07/13 00:31:01;;;;;;;1.98;1.67;;;20.60;99.90;;;;;;5039598;28;20186;-31
2023/07/13 00:33:28;;;;;;;3.88;1.63;;;20.60;99.90;;;;;;5039406;28;20190;-31
2023/07/13 00:35:58;;;;;;;2.00;1.70;;;20.50;99.90;;;;;;5048830;28;20301;-31
2023/07/13 00:38:25;;;;;;;3.35;1.77;;;20.40;99.90;;;;;;5037388;28;20199;-31
2023/07/13 00:40:50;;;;;;;2.25;1.80;;;20.40;99.90;;;;;;5026897;28;20293;-31
2023/07/13 00:43:19;;;;;;;4.75;1.58;;;20.40;99.90;;;;;;5037424;28;20242;-31
2023/07/13 00:45:45;;;;;;;2.10;1.55;;;20.40;99.90;;;;;;5040044;28;20195;-31
2023/07/13 00:48:14;;;;;;;2.75;1.50;;;20.30;99.90;;;;;;5026947;28;20197;-31
2023/07/13 00:50:42;;;;;;;1.50;1.40;;;20.40;99.90;;;;;;5039058;28;20658;-29
2023/07/13 00:53:08;;;;;;;1.98;1.77;;;20.40;99.90;;;;;;5025041;28;20707;-31
2023/07/13 00:55:35;;;;;;;2.25;1.88;;;20.30;99.90;;;;;;5035403;28;20349;-31
2023/07/13 00:58:02;;;;;;;2.40;1.60;;;20.30;99.90;;;;;;5030328;28;20202;-30
2023/07/13 01:00:29;;;;;;;5.03;1.95;;;20.20;99.90;;;;;;5038017;28;20243;-28
2023/07/13 01:02:56;;;;;;;1.60;1.50;;;20.10;99.90;;;;;;5042145;28;20183;-31
2023/07/13 01:05:25;;;;;;;3.17;1.60;;;20.10;99.90;;;;;;5030261;28;20189;-31
2023/07/13 01:07:52;;;;;;;1.90;1.70;;;20.10;99.90;;;;;;5036878;28;20210;-30
2023/07/13 01:10:22;;;;;;;3.00;1.58;;;20.00;99.90;;;;;;5035557;28;20224;-31
2023/07/13 01:12:48;;;;;;;2.53;1.67;;;20.00;99.90;;;;;;5038167;28;20189;-31
2023/07/13 01:15:33;;;;;;;1.60;1.40;;;19.90;99.90;;;;;;5034980;28;20210;-31
2023/07/13 01:17:58;;;;;;;2.00;1.40;;;19.90;99.90;;;;;;5020489;28;20216;-31
2023/07/13 01:20:25;;;;;;;2.30;1.70;;;19.80;99.90;;;;;;5013913;28;20234;-31
2023/07/13 01:22:51;;;;;;;1.90;1.60;;;19.80;99.90;;;;;;5033362;28;20179;-31
2023/07/13 01:25:17;;;;;;;1.50;1.40;;;19.60;99.90;;;;;;5031564;28;20187;-30
2023/07/13 01:27:43;;;;;;;2.33;1.70;;;19.50;99.90;;;;;;5037095;28;20198;-30
2023/07/13 01:30:09;;;;;;;1.67;1.38;;;19.50;99.90;;;;;;5029231;28;20179;-31
2023/07/13 01:32:36;;;;;;;1.52;1.27;;;19.40;99.90;;;;;;5037082;28;20178;-30
2023/07/13 01:35:03;;;;;;;3.72;1.60;;;19.30;99.90;;;;;;5034095;28;20201;-31
2023/07/13 01:37:33;;;;;;;1.77;1.42;;;19.30;99.90;;;;;;5035831;28;20174;-30
2023/07/13 01:39:59;;;;;;;3.55;1.63;;;19.30;99.90;;;;;;5029612;28;20217;-31
2023/07/13 01:42:26;;;;;;;3.47;1.38;;;19.30;99.90;;;;;;5038924;28;20170;-30
2023/07/13 01:44:51;;;;;;;2.45;1.33;;;19.10;99.90;;;;;;5024627;28;20259;-31
2023/07/13 01:47:17;;;;;;;2.58;1.67;;;19.00;99.90;;;;;;5037802;28;20189;-31
2023/07/13 01:49:45;;;;;;;2.08;1.40;;;19.00;99.90;;;;;;5040470;28;20174;-31
2023/07/13 01:52:11;;;;;;;2.80;1.40;;;19.00;99.90;;;;;;5029032;28;20183;-31
2023/07/13 01:54:37;;;;;;;2.35;1.63;;;19.00;99.90;;;;;;5029885;28;20189;-31
2023/07/13 01:57:03;;;;;;;4.22;1.50;;;18.90;99.90;;;;;;5034291;28;20256;-31
2023/07/13 01:59:29;;;;;;;4.75;1.70;;;18.80;99.90;;;;;;5043876;28;20201;-31
2023/07/13 02:01:55;;;;;;;2.05;1.58;;;18.70;99.90;;;;;;5032315;28;20190;-30
2023/07/13 02:04:21;;;;;;;2.90;1.60;;;18.70;99.90;;;;;;5032358;28;20179;-29
2023/07/13 02:06:47;;;;;;;3.78;1.50;;;18.70;99.90;;;;;;5027616;28;20177;-31
2023/07/13 02:09:15;;;;;;;2.35;1.52;;;18.60;99.90;;;;;;5043649;28;20284;-30
2023/07/13 02:11:41;;;;;;;1.80;1.70;;;18.60;99.90;;;;;;5044107;28;20185;-31
2023/07/13 02:14:07;;;;;;;2.35;1.67;;;18.60;99.90;;;;;;5037422;28;20196;-31
2023/07/13 02:16:33;;;;;;;2.30;1.52;;;18.50;99.90;;;;;;5050723;28;20210;-30
2023/07/13 02:19:00;;;;;;;2.15;1.60;;;18.50;99.90;;;;;;5037375;28;20252;-31
2023/07/13 02:21:26;;;;;;;1.88;1.35;;;18.50;99.90;;;;;;5047532;28;20182;-29
2023/07/13 02:23:52;;;;;;;2.45;1.67;;;18.40;99.90;;;;;;5032842;28;20185;-31
2023/07/13 02:26:18;;;;;;;1.92;1.33;;;18.40;99.90;;;;;;5027261;28;20253;-31
2023/07/13 02:28:44;;;;;;;3.00;1.58;;;18.40;99.90;;;;;;5014007;28;20293;-31
2023/07/13 02:31:14;;;;;;;6.25;1.60;;;18.30;99.90;;;;;;5034605;28;20193;-31
2023/07/13 02:33:39;;;;;;;3.47;1.40;;;18.30;99.90;;;;;;5018201;28;20206;-31
2023/07/13 02:36:06;;;;;;;5.18;1.63;;;18.20;99.90;;;;;;5027070;28;20198;-29
2023/07/13 02:38:33;;;;;;;2.28;1.27;;;18.20;99.90;;;;;;5032563;28;20202;-30
2023/07/13 02:41:05;;;;;;;1.98;1.40;;;18.10;99.90;;;;;;5037108;28;20175;-31
2023/07/13 02:43:31;;;;;;;2.28;1.38;;;18.20;99.90;;;;;;5039552;28;20273;-31
2023/07/13 02:46:00;;;;;;;2.58;1.50;;;18.20;99.90;;;;;;5039748;28;20270;-31
2023/07/13 02:48:26;;;;;;;2.15;1.55;;;18.20;99.90;;;;;;5028607;28;20206;-30
2023/07/13 02:50:52;;;;;;;1.77;1.35;;;18.20;99.90;;;;;;5030161;28;20240;-31
2023/07/13 02:53:17;;;;;;;2.88;1.45;;;18.20;99.90;;;;;;5019542;28;20183;-31
2023/07/13 02:55:47;;;;;;;2.92;1.50;;;18.20;99.90;;;;;;5032309;28;20244;-31
2023/07/13 02:58:16;;;;;;;1.42;1.30;;;18.30;99.90;;;;;;5012388;28;20195;-30
2023/07/13 03:00:43;;;;;;;2.20;1.40;;;18.20;99.90;;;;;;5028683;28;20271;-30
2023/07/13 03:03:10;;;;;;;3.00;1.52;;;18.20;99.90;;;;;;5028186;28;20190;-31
2023/07/13 03:05:38;;;;;;;4.47;1.55;;;18.20;99.90;;;;;;5029154;28;20175;-30
2023/07/13 03:08:04;;;;;;;1.73;1.20;;;18.10;99.90;;;;;;5023243;28;20194;-31
2023/07/13 03:10:31;;;;;;;2.08;1.30;;;18.00;99.90;;;;;;5039227;28;20174;-30
2023/07/13 03:12:56;;;;;;;3.63;1.48;;;18.00;99.90;;;;;;5018303;28;20178;-31
2023/07/13 03:15:26;;;;;;;5.00;1.70;;;18.00;99.90;;;;;;5032946;28;20291;-30
2023/07/13 03:17:54;;;;;;;1.60;1.50;;;18.00;99.90;;;;;;5011985;28;20301;-31
2023/07/13 03:20:20;;;;;;;4.68;1.85;;;18.00;99.90;;;;;;5011061;28;20269;-31
2023/07/13 03:22:46;;;;;;;5.22;1.73;;;17.90;99.90;;;;;;5013516;28;20178;-30
2023/07/13 03:25:13;;;;;;;1.50;1.33;;;17.90;99.90;;;;;;5028529;28;20194;-31
2023/07/13 03:27:39;;;;;;;1.65;1.55;;;17.80;99.90;;;;;;5037075;28;20210;-31
2023/07/13 03:30:08;;;;;;;2.78;1.55;;;17.80;99.90;;;;;;5023394;28;20182;-30
2023/07/13 03:32:34;;;;;;;2.22;1.60;;;17.80;99.90;;;;;;5042639;28;20277;-31
2023/07/13 03:35:01;;;;;;;2.58;1.58;;;17.80;99.90;;;;;;5034207;28;20288;-30
2023/07/13 03:37:28;;;;;;;2.60;1.88;;;17.90;99.90;;;;;;5028919;28;20551;-31
2023/07/13 03:39:55;;;;;;;2.95;1.75;;;17.80;99.90;;;;;;5026242;28;20177;-30
2023/07/13 03:42:21;;;;;;;4.45;1.70;;;17.70;99.90;;;;;;5032303;28;20189;-31
2023/07/13 03:44:52;;;;;;;5.47;1.60;;;17.70;99.90;;;;;;5034301;28;20186;-30
2023/07/13 03:47:18;;;;;;;4.25;1.90;;;17.60;99.90;;;;;;5019828;28;20273;-31
2023/07/13 03:49:46;;;;;;;2.33;1.70;;;17.40;99.90;;;;;;5060897;28;20244;-31
2023/07/13 03:52:12;;;;;;;2.85;1.70;;;17.40;99.90;;;;;;5031583;28;20171;-30
2023/07/13 03:54:38;;;;;;;3.97;1.50;;;17.40;99.90;;;;;;5032132;28;20244;-30
2023/07/13 03:57:05;;;;;;;1.50;1.40;;;17.40;99.90;;;;;;5052137;28;20229;-31
2023/07/13 03:59:34;;;;;;;2.05;1.45;;;17.50;99.90;;;;;;5040990;28;20201;-30
2023/07/13 04:02:01;;;;;;;3.55;1.63;;;17.50;99.90;;;;;;5020424;28;20279;-29
2023/07/13 04:04:27;;;;;;;2.30;1.58;;;17.60;99.90;;;;;;5017695;28;20214;-29
2023/07/13 04:06:53;;;;;;;4.72;1.77;;;17.70;99.90;;;;;;5032095;28;20209;-31
2023/07/13 04:09:21;;;;;;;2.63;1.80;;;17.70;99.90;;;;;;5026519;28;20214;-31
2023/07/13 04:11:50;;;;;;;2.85;1.70;;;17.70;99.90;;;;;;5033241;28;20201;-30
2023/07/13 04:14:19;;;;;;;3.05;1.98;;;17.80;99.90;;;;;;5051409;28;20205;-31
2023/07/13 04:16:49;;;;;;;5.00;1.90;;;17.70;99.90;;;;;;5032517;28;20209;-30
2023/07/13 04:19:20;;;;;;;2.83;2.08;;;17.70;99.90;;;;;;5023176;28;20244;-31
2023/07/13 04:21:47;;;;;;;3.47;2.10;;;17.70;99.90;;;;;;5031025;28;20194;-30
2023/07/13 04:24:16;;;;;;;2.22;1.45;;;17.80;99.90;;;;;;5031517;28;20174;-31
2023/07/13 04:26:42;;;;;;;4.60;1.90;;;17.80;99.90;;;;;;5037753;28;20182;-31
2023/07/13 04:29:08;;;;;;;2.28;1.90;;;17.80;99.90;;;;;;5028466;28;20289;-31
2023/07/13 04:31:34;;;;;;;2.20;1.50;;;17.80;99.90;;;;;;5038209;28;20206;-31
2023/07/13 04:34:00;;;;;;;2.80;1.80;;;17.80;99.90;;;;;;5023648;28;20220;-31
2023/07/13 04:36:29;;;;;;;3.80;1.58;;;17.70;99.90;;;;;;5037433;28;20206;-30
2023/07/13 04:38:55;;;;;;;2.90;1.90;;;17.70;99.90;;;;;;5042812;28;20300;-31
2023/07/13 04:41:21;;;;;;;2.33;1.70;;;17.70;99.90;;;;;;5051237;28;20253;-31
2023/07/13 04:43:48;;;;;;;2.53;2.00;;;17.70;99.90;;;;;;5026298;28;20277;-31
2023/07/13 04:46:17;;;;;;;3.85;2.05;;;17.70;99.90;;;;;;5026072;28;20216;-31
2023/07/13 04:48:43;;;;;;;2.10;1.90;;;17.70;99.90;;;;;;5042772;28;20212;-31
2023/07/13 04:51:09;;;;;;;3.35;2.03;;;17.70;99.90;;;;;;5038241;28;20269;-31
2023/07/13 04:53:35;;;;;;;4.40;2.15;;;17.70;99.90;;;;;;5026741;28;20189;-31
2023/07/13 04:56:02;;;;;;;4.93;2.00;;;17.70;99.90;;;;;;5038621;28;20210;-30
2023/07/13 04:58:28;;;;;;;2.20;2.00;;;17.70;99.90;;;;;;5038502;28;20194;-30
2023/07/13 05:01:00;;;;;;;4.30;1.98;;;17.70;99.90;;;;;;5038824;28;20633;-30
2023/07/13 05:03:26;;;;;;;2.80;1.67;;;17.70;99.90;;;;;;5029611;28;20183;-31
2023/07/13 05:05:57;;;;;;;3.28;1.63;;;17.70;99.90;;;;;;5014756;28;20244;-31
2023/07/13 05:08:23;;;;;;;2.53;1.90;;;17.70;99.90;;;;;;5050626;28;20202;-29
2023/07/13 05:10:50;;;;;;;5.40;1.90;;;17.70;99.90;;;;;;5031884;28;20257;-31
2023/07/13 05:13:16;;;;;;;5.28;2.22;;;17.80;99.90;;;;;;5035364;28;20214;-31
2023/07/13 05:15:41;;;;;;;6.70;2.10;;;17.90;99.90;;;;;;5021977;28;20240;-30
2023/07/13 05:18:07;;;;;;;5.22;2.15;;;17.90;99.90;;;;;;5026958;28;20249;-30
2023/07/13 05:20:33;;;;;;;4.93;2.22;;;18.00;99.90;;;;;;5038008;28;20553;-31
2023/07/13 05:22:59;;;;;;;4.03;1.95;;;18.00;99.90;;;;;;5046297;28;20181;-31
2023/07/13 05:25:25;;;;;;;3.03;1.90;;;18.10;99.90;;;;;;5041971;28;20206;-31
2023/07/13 05:27:50;;;;;;;6.55;1.80;;;18.20;99.90;;;;;;5050127;28;20237;-31
2023/07/13 05:30:16;;;;;;;3.28;1.92;;;18.30;99.90;;;;;;5018877;28;20215;-30
2023/07/13 05:32:42;;;;;;;2.05;1.60;;;18.30;99.90;;;;;;5022617;28;20186;-31
2023/07/13 05:35:08;;;;;;;4.00;2.00;;;18.40;99.90;;;;;;5029451;28;20210;-30
2023/07/13 05:37:34;;;;;;;4.93;1.90;;;18.30;99.90;;;;;;5031432;28;20198;-31
2023/07/13 05:40:00;;;;;;;1.95;1.65;;;18.20;99.90;;;;;;5046225;28;20177;-31
2023/07/13 05:42:31;;;;;;;5.47;1.90;;;18.30;99.90;;;;;;5040659;28;20247;-31
2023/07/13 05:44:57;;;;;;;4.53;2.10;;;18.30;99.90;;;;;;5033043;28;20409;-31
2023/07/13 05:47:25;;;;;;;2.20;1.80;;;18.30;99.90;;;;;;5019696;28;20260;-30
2023/07/13 05:49:51;;;;;;;5.95;2.38;;;18.40;99.90;;;;;;5045806;28;20185;-31
2023/07/13 05:52:17;;;;;;;2.20;2.00;;;18.40;99.90;;;;;;5028402;28;20269;-31
2023/07/13 05:54:44;;;;;;;5.93;2.13;;;18.40;99.90;;;;;;5049330;28;20265;-29
2023/07/13 05:57:10;;;;;;;3.15;2.40;;;18.40;99.90;;;;;;5043490;28;20202;-30
2023/07/13 05:59:36;;;;;;;3.15;2.30;;;18.50;99.90;;;;;;5024548;28;20328;-31
2023/07/13 06:02:01;;;;;;;3.85;2.05;;;18.50;99.90;;;;;;5060507;28;20188;-31
2023/07/13 06:04:30;;;;;;;4.57;2.13;;;18.60;99.90;;;;;;5054543;28;20182;-31
2023/07/13 06:06:57;;;;;;;3.72;2.33;;;18.50;99.90;;;;;;5042860;28;20312;-31
2023/07/13 06:09:23;;;;;;;3.20;2.25;;;18.50;99.90;;;;;;5040525;28;20201;-31
2023/07/13 06:11:49;;;;;;;5.05;1.90;;;18.60;99.90;;;;;;5059794;28;20182;-32
2023/07/13 06:14:14;;;;;;;3.83;2.20;;;18.80;99.90;;;;;;5056336;28;20262;-31
2023/07/13 06:16:41;;;;;;;2.67;2.08;;;19.00;99.90;;;;;;5054502;28;20208;-31
2023/07/13 06:19:07;;;;;;;4.88;2.13;;;19.10;99.90;;;;;;5036937;28;20200;-31
2023/07/13 06:21:33;;;;;;;4.85;2.28;;;19.20;99.90;;;;;;5045016;28;20178;-31
2023/07/13 06:23:58;;;;;;;4.30;2.17;;;19.10;99.90;;;;;;5036292;28;20202;-31
2023/07/13 06:26:24;;;;;;;3.67;2.38;;;19.10;99.90;;;;;;5049127;28;20177;-31
2023/07/13 06:28:50;;;;;;;3.90;1.95;;;19.20;99.90;;;;;;5067572;28;20274;-31
2023/07/13 06:31:16;;;;;;;3.92;1.83;;;19.40;99.90;;;;;;5047657;28;20247;-31
2023/07/13 06:33:43;;;;;;;3.75;1.77;;;19.60;99.90;;;;;;5041206;28;20186;-31
2023/07/13 06:36:09;;;;;;;8.90;2.17;;;19.90;99.90;;;;;;5039941;28;20271;-29
2023/07/13 06:38:36;;;;;;;5.53;2.00;;;20.10;99.90;;;;;;5057544;28;20198;-30
2023/07/13 06:41:02;;;;;;;3.03;1.67;;;20.40;99.90;;;;;;5052179;28;20181;-32
2023/07/13 06:43:29;;;;;;;2.38;1.95;;;20.50;99.90;;;;;;5044550;28;20188;-31
2023/07/13 06:45:55;;;;;;;4.82;1.83;;;20.60;99.90;;;;;;5049700;28;20277;-31
2023/07/13 06:48:22;;;;;;;2.15;1.50;;;20.90;99.90;;;;;;5052440;28;20208;-30
2023/07/13 06:50:50;;;;;;;3.70;1.67;;;21.10;99.90;;;;;;5050712;28;20189;-31
2023/07/13 06:53:17;;;;;;;3.67;1.80;;;21.20;99.90;;;;;;5049282;28;20204;-31
2023/07/13 06:55:44;;;;;;;4.15;1.70;;;21.50;99.90;;;;;;5032235;28;20206;-32
2023/07/13 06:58:10;;;;;;;3.80;1.45;;;21.60;99.90;;;;;;5036731;28;20284;-32
2023/07/13 07:00:36;;;;;;;2.15;1.48;;;21.60;99.90;;;;;;5052108;28;20264;-32
2023/07/13 07:03:02;;;;;;;4.78;1.75;;;21.60;99.90;;;;;;5060605;28;20327;-31
2023/07/13 07:05:28;;;;;;;2.05;1.40;;;21.60;99.90;;;;;;5036014;28;20186;-31
2023/07/13 07:07:55;;;;;;;2.00;1.48;;;21.90;99.90;;;;;;5041098;28;20210;-31
2023/07/13 07:10:22;;;;;;;4.93;1.50;;;22.10;99.90;;;;;;5051455;28;20197;-31
2023/07/13 07:12:47;;;;;;;4.32;1.50;;;22.20;99.90;;;;;;5042732;28;20234;-32
2023/07/13 07:15:14;;;;;;;2.70;1.60;;;22.30;99.90;;;;;;5055353;28;20209;-32
2023/07/13 07:17:40;;;;;;;2.92;1.48;;;22.30;99.90;;;;;;5046825;28;20198;-30
2023/07/13 07:20:07;;;;;;;3.70;1.58;;;22.30;99.90;;;;;;5036072;28;20204;-31
2023/07/13 07:22:32;;;;;;;1.80;1.27;;;22.20;99.90;;;;;;5060491;28;20182;-32
2023/07/13 07:24:58;;;;;;;2.88;1.40;;;22.40;99.90;;;;;;5052472;28;20190;-31
2023/07/13 07:27:25;;;;;;;4.93;1.55;;;22.50;99.90;;;;;;5052348;28;20174;-32
2023/07/13 07:29:51;;;;;;;2.88;1.60;;;22.70;99.90;;;;;;5053634;28;20271;-30
2023/07/13 07:32:17;;;;;;;4.18;1.50;;;22.80;99.90;;;;;;5042209;28;20718;-30
2023/07/13 07:34:43;;;;;;;2.42;1.42;;;23.00;99.90;;;;;;5046719;28;20187;-32
2023/07/13 07:37:16;;;;;;;1.98;1.50;;;23.20;99.90;;;;;;5047096;28;20200;-32
2023/07/13 07:39:43;;;;;;;2.40;1.23;;;23.40;99.90;;;;;;5039164;28;20192;-31
2023/07/13 07:42:09;;;;;;;3.90;1.35;;;23.50;99.90;;;;;;5035610;28;20178;-32
2023/07/13 07:44:35;;;;;;;4.03;1.48;;;23.30;99.90;;;;;;5059650;28;20177;-31
2023/07/13 07:47:01;;;;;;;2.15;1.30;;;23.40;99.90;;;;;;5052333;28;20185;-31
2023/07/13 07:49:27;;;;;;;3.53;1.30;;;23.50;99.90;;;;;;5043952;28;20198;-31
2023/07/13 07:51:53;;;;;;;3.05;1.38;;;23.50;99.90;;;;;;5043093;28;20205;-32
2023/07/13 07:54:19;;;;;;;1.88;1.15;;;23.70;99.90;;;;;;5046679;28;20174;-31
2023/07/13 07:56:45;;;;;;;2.28;1.30;;;23.80;99.90;;;;;;5058897;28;20216;-32
2023/07/13 07:59:11;;;;;;;2.60;1.30;;;23.90;99.90;;;;;;5050660;28;20281;-31
2023/07/13 08:01:37;;;;;;;3.05;1.52;;;24.00;99.90;;;;;;5060042;28;20208;-31
2023/07/13 08:04:03;;;;;;;2.90;1.20;;;23.90;99.90;;;;;;5063412;28;20232;-32
2023/07/13 08:06:28;;;;;;;2.83;1.05;;;23.90;99.90;;;;;;5064572;28;20218;-31
2023/07/13 08:08:55;;;;;;;2.05;1.30;;;24.00;99.90;;;;;;5043119;28;20210;-31
2023/07/13 08:11:22;;;;;;;1.70;1.20;;;24.20;99.90;;;;;;5040658;28;20185;-31
2023/07/13 08:13:47;;;;;;;2.53;1.40;;;24.20;99.90;;;;;;5046321;28;20193;-31
2023/07/13 08:16:13;;;;;;;2.40;1.33;;;24.40;99.90;;;;;;5057956;28;20201;-32
2023/07/13 08:18:39;;;;;;;1.83;1.40;;;24.50;99.90;;;;;;5051008;28;20205;-32
2023/07/13 08:21:07;;;;;;;2.60;1.60;;;24.40;99.90;;;;;;5070734;28;20181;-32
2023/07/13 08:23:33;;;;;;;2.63;1.40;;;24.20;99.90;;;;;;5039378;28;20170;-31
2023/07/13 08:26:01;;;;;;;2.17;1.33;;;24.00;99.90;;;;;;5040564;28;20249;-31
2023/07/13 08:28:27;;;;;;;6.22;1.50;;;24.20;99.90;;;;;;5040913;28;20213;-31
2023/07/13 08:30:53;;;;;;;3.72;1.10;;;24.20;99.90;;;;;;5037868;28;20192;-31
2023/07/13 08:33:20;;;;;;;1.77;1.30;;;24.20;99.90;;;;;;5040667;28;20181;-31
2023/07/13 08:35:47;;;;;;;3.47;1.27;;;24.30;99.90;;;;;;5043119;28;20209;-32
2023/07/13 08:38:13;;;;;;;2.97;1.33;;;24.30;99.90;;;;;;5051191;28;20276;-32
2023/07/13 08:40:39;;;;;;;3.05;1.40;;;24.40;99.90;;;;;;5058716;28;20174;-31
2023/07/13 08:43:13;;;;;;;3.10;1.15;;;24.50;99.90;;;;;;5037110;28;20177;-32
2023/07/13 08:46:12;;;;;;;4.43;1.40;;;24.70;99.90;;;;;;5038424;28;20229;-31
2023/07/13 08:48:53;;;;;;;3.38;1.55;;;24.90;99.90;;;;;;5039004;28;20274;-31
2023/07/13 08:51:24;;;;;;;2.72;1.38;;;24.90;99.90;;;;;;5048291;28;20185;-31
2023/07/13 08:53:55;;;;;;;3.08;1.42;;;24.90;99.90;;;;;;5048216;28;20285;-31
2023/07/13 08:56:30;;;;;;;4.32;1.65;;;25.20;99.90;;;;;;5047465;28;20286;-31
2023/07/13 08:59:21;;;;;;;4.13;1.40;;;25.40;99.90;;;;;;5044075;28;20198;-31
2023/07/13 09:02:22;;;;;;;3.20;1.40;;;25.60;99.90;;;;;;5057401;28;20213;-31
2023/07/13 09:04:53;;;;;;;3.13;1.45;;;25.80;99.90;;;;;;5069611;28;20177;-30
2023/07/13 09:07:31;;;;;;;3.47;1.42;;;25.80;99.90;;;;;;5049147;28;20235;-30
2023/07/13 09:10:03;;;;;;;3.20;1.35;;;25.90;99.90;;;;;;5043599;28;20189;-31
2023/07/13 09:12:50;;;;;;;3.33;1.35;;;26.00;99.90;;;;;;5039400;28;20192;-32
2023/07/13 09:15:31;;;;;;;3.95;1.40;;;26.00;99.90;;;;;;5046138;28;20263;-30
2023/07/13 09:18:22;;;;;;;2.90;1.40;;;26.20;99.90;;;;;;5050008;28;20206;-31
2023/07/13 09:20:58;;;;;;;1.40;1.10;;;26.30;99.90;;;;;;5069372;28;20185;-31
2023/07/13 09:23:29;;;;;;;2.58;1.27;;;26.40;99.90;;;;;;5036867;28;20178;-31
2023/07/13 09:26:05;;;;;;;1.58;1.20;;;26.80;99.90;;;;;;5051092;28;20182;-31
2023/07/13 09:28:38;;;;;;;4.60;1.48;;;26.80;99.90;;;;;;5050574;28;20213;-31
2023/07/13 09:31:36;;;;;;;4.18;1.25;;;26.70;99.90;;;;;;5042800;28;20186;-32
2023/07/13 09:34:04;;;;;;;2.03;1.20;;;26.40;99.90;;;;;;5034918;28;20185;-32
2023/07/13 09:36:32;;;;;;;4.07;1.23;;;26.20;99.90;;;;;;5032451;28;20296;-32
2023/07/13 09:39:07;;;;;;;1.55;1.30;;;25.90;99.90;;;;;;5058002;28;20205;-31
2023/07/13 09:41:52;;;;;;;1.75;1.20;;;26.10;99.90;;;;;;5039500;28;20641;-31
2023/07/13 09:44:31;;;;;;;3.33;1.40;;;26.50;99.90;;;;;;5034068;28;20273;-32
2023/07/13 09:46:57;;;;;;;1.88;1.33;;;26.70;99.90;;;;;;5049704;28;20181;-32
2023/07/13 09:49:29;;;;;;;1.67;1.33;;;26.70;99.20;;;;;;5049050;28;20193;-32
2023/07/13 09:52:16;;;;;;;2.70;1.45;;;26.60;98.20;;;;;;5051621;28;20209;-31
2023/07/13 09:54:53;;;;;;;3.03;1.55;;;26.40;98.90;;;;;;5045347;28;20212;-31
2023/07/13 09:57:23;;;;;;;4.20;1.20;;;26.30;99.40;;;;;;5045931;28;20216;-32
2023/07/13 09:59:52;;;;;;;3.58;1.60;;;26.50;99.70;;;;;;5036162;28;20194;-32
2023/07/13 10:02:34;;;;;;;3.53;1.50;;;27.00;99.90;;;;;;5033088;28;20257;-32
2023/07/13 10:05:03;;;;;;;2.85;1.30;;;27.20;98.90;;;;;;5049733;28;20174;-32
2023/07/13 10:07:32;;;;;;;2.97;1.42;;;27.50;98.60;;;;;;5048693;28;20182;-32
2023/07/13 10:10:00;;;;;;;2.47;1.40;;;27.50;99.10;;;;;;5033521;28;20272;-31
2023/07/13 10:12:29;;;;;;;3.08;1.30;;;27.30;98.70;;;;;;5030842;28;20178;-32
2023/07/13 10:14:58;;;;;;;2.72;1.45;;;27.20;99.00;;;;;;5032382;28;20248;-32
2023/07/13 10:17:32;;;;;;;2.65;1.50;;;27.30;99.50;;;;;;5046992;28;20216;-31
2023/07/13 10:20:12;;;;;;;3.42;1.25;;;27.30;98.80;;;;;;5032707;28;20174;-31
2023/07/13 10:23:01;;;;;;;3.50;1.42;;;27.20;97.70;;;;;;5033067;28;20223;-32
2023/07/13 10:25:32;;;;;;;2.45;1.38;;;27.10;98.40;;;;;;5048725;28;20201;-31
2023/07/13 10:28:32;;;;;;;3.13;1.42;;;27.20;97.90;;;;;;5032266;28;20197;-32
2023/07/13 10:31:01;;;;;;;3.35;1.40;;;27.60;98.80;;;;;;5025187;28;20186;-32
2023/07/13 10:33:27;;;;;;;1.88;1.20;;;27.50;99.00;;;;;;5032596;28;20193;-31
2023/07/13 10:36:03;;;;;;;4.13;1.50;;;27.50;98.60;;;;;;5032337;28;20236;-29
2023/07/13 10:38:30;;;;;;;4.68;1.40;;;27.30;97.80;;;;;;5048042;28;20198;-32
2023/07/13 10:41:06;;;;;;;4.55;1.48;;;27.30;98.40;;;;;;5032176;28;20267;-31
2023/07/13 10:43:43;;;;;;;3.72;1.50;;;27.00;98.30;;;;;;5032733;28;20173;-31
2023/07/13 10:46:16;;;;;;;2.95;1.30;;;26.60;98.40;;;;;;5030675;28;20190;-31
2023/07/13 10:48:44;;;;;;;3.42;1.40;;;26.50;98.90;;;;;;5048458;28;20236;-31
2023/07/13 10:51:14;;;;;;;2.80;1.30;;;26.50;97.90;;;;;;5053706;28;20193;-31
2023/07/13 10:53:40;;;;;;;3.92;1.38;;;26.40;98.10;;;;;;5036336;28;20255;-32
2023/07/13 10:56:30;;;;;;;1.90;1.40;;;26.50;98.40;;;;;;5052286;28;20233;-32
2023/07/13 10:59:15;;;;;;;3.10;1.50;;;26.80;98.30;;;;;;5052758;28;20229;-32
2023/07/13 11:01:55;;;;;;;4.05;1.40;;;27.00;97.80;;;;;;5038137;28;20190;-32
2023/07/13 11:04:23;;;;;;;3.42;1.38;;;27.30;97.80;;;;;;5038835;28;20189;-32
2023/07/13 11:07:11;;;;;;;2.55;1.27;;;27.50;97.50;;;;;;5044952;28;20183;-32
2023/07/13 11:09:44;;;;;;;3.42;1.50;;;27.80;96.40;;;;;;5031970;28;20234;-32
2023/07/13 11:12:28;;;;;;;1.70;1.25;;;27.80;97.20;;;;;;5041504;28;20192;-31
2023/07/13 11:14:54;;;;;;;2.90;1.38;;;27.70;97.00;;;;;;5054102;28;20189;-32
2023/07/13 11:17:47;;;;;;;2.53;1.20;;;27.80;97.40;;;;;;5040690;28;20197;-32
2023/07/13 11:20:13;;;;;;;1.38;1.13;;;27.70;96.60;;;;;;5053421;28;20194;-31
2023/07/13 11:22:51;;;;;;;2.55;1.50;;;27.50;96.40;;;;;;5035539;28;20220;-32
2023/07/13 11:25:32;;;;;;;3.45;1.40;;;27.60;96.70;;;;;;5067897;28;20284;-30
2023/07/13 11:28:10;;;;;;;3.55;1.30;;;27.90;96.30;;;;;;5059617;28;20270;-31
2023/07/13 11:30:48;;;;;;;3.33;1.20;;;28.20;94.30;;;;;;5059297;28;20178;-29
2023/07/13 11:33:53;;;;;;;3.83;1.30;;;28.00;94.10;;;;;;5051959;28;20181;-30
2023/07/13 11:36:23;;;;;;;2.63;1.30;;;28.20;94.60;;;;;;5035340;28;20198;-30
2023/07/13 11:39:00;;;;;;;2.22;1.20;;;28.30;93.60;;;;;;5060548;28;20217;-30
2023/07/13 11:41:42;;;;;;;1.60;1.20;;;28.00;94.20;;;;;;5032168;28;20175;-30
2023/07/13 11:44:21;;;;;;;1.73;1.30;;;28.30;94.90;;;;;;5050726;28;20193;-30
2023/07/13 11:46:53;;;;;;;2.38;1.15;;;28.60;93.50;;;;;;5042577;28;20193;-30
2023/07/13 11:49:26;;;;;;;2.60;1.52;;;28.70;92.30;;;;;;5044344;28;20233;-30
2023/07/13 11:51:56;;;;;;;2.22;1.50;;;29.10;92.20;;;;;;5043723;28;20194;-30
2023/07/13 11:54:33;;;;;;;1.75;1.15;;;29.00;92.40;;;;;;5038281;28;20193;-32
2023/07/13 11:57:18;;;;;;;1.90;1.30;;;28.60;91.40;;;;;;5064218;28;20209;-30
2023/07/13 11:59:44;;;;;;;1.88;1.30;;;28.70;91.30;;;;;;5065856;28;20264;-30
2023/07/13 12:02:30;;;;;;;3.08;1.50;;;28.80;91.40;;;;;;5049983;28;20242;-32
2023/07/13 12:04:58;;;;;;;2.63;1.30;;;28.90;92.80;;;;;;5037519;28;20209;-31
2023/07/13 12:07:30;;;;;;;2.47;1.30;;;28.70;92.20;;;;;;5036690;28;20185;-28
2023/07/13 12:10:29;;;;;;;1.73;1.20;;;28.40;92.20;;;;;;5052487;28;20242;-30
2023/07/13 12:13:08;;;;;;;3.50;1.40;;;28.30;92.70;;;;;;5053500;28;20583;-29
2023/07/13 12:15:45;;;;;;;1.83;1.45;;;28.20;91.20;;;;;;5051569;28;20210;-30
2023/07/13 12:18:18;;;;;;;3.38;1.23;;;28.20;93.00;;;;;;5037538;28;20233;-30
2023/07/13 12:20:45;;;;;;;2.95;1.33;;;28.40;92.80;;;;;;5044319;28;20184;-31
2023/07/13 12:23:23;;;;;;;3.50;1.40;;;28.50;92.20;;;;;;5044635;28;20235;-30
2023/07/13 12:25:50;;;;;;;1.35;1.20;;;28.80;93.20;;;;;;5036110;28;20186;-30
2023/07/13 12:28:52;;;;;;;3.53;1.33;;;29.00;91.50;;;;;;5053654;28;20198;-30
2023/07/13 12:31:32;;;;;;;3.30;1.35;;;28.90;91.80;;;;;;5004712;28;20247;-30
2023/07/13 12:34:06;;;;;;;2.28;1.10;;;29.20;92.80;;;;;;5075165;28;20174;-30
2023/07/13 12:36:35;;;;;;;2.45;1.10;;;29.50;91.70;;;;;;5038889;28;20196;-30
2023/07/13 12:39:12;;;;;;;1.60;1.27;;;29.50;90.10;;;;;;5054622;28;20280;-29
2023/07/13 12:41:38;;;;;;;2.25;1.35;;;29.70;91.60;;;;;;5057782;28;20194;-30
2023/07/13 12:44:11;;;;;;;1.98;1.30;;;29.80;90.50;;;;;;5052570;28;20182;-30
2023/07/13 12:46:37;;;;;;;2.20;1.50;;;29.70;89.90;;;;;;5057336;28;20191;-29
2023/07/13 12:49:07;;;;;;;2.53;1.10;;;29.80;90.60;;;;;;5043169;28;20205;-29
2023/07/13 12:51:33;;;;;;;2.70;1.42;;;30.10;89.10;;;;;;5065762;28;20231;-29
2023/07/13 12:54:18;;;;;;;2.38;1.50;;;29.80;87.40;;;;;;5056932;28;20273;-30
2023/07/13 12:56:45;;;;;;;5.93;1.50;;;30.00;88.60;;;;;;5034491;28;20208;-30
2023/07/13 12:59:19;;;;;;;3.55;1.30;;;30.10;87.50;;;;;;5044529;28;20224;-31
2023/07/13 13:01:49;;;;;;;1.25;1.10;;;30.00;86.80;;;;;;5048117;28;20644;-30